createdAt,value
2022-10-06T00:02:39.099Z,15.70
2022-10-06T00:05:27.855Z,15.70
2022-10-06T00:08:15.391Z,15.70
2022-10-06T00:11:03.151Z,15.70
2022-10-06T00:13:50.780Z,15.70
2022-10-06T00:16:38.226Z,15.70
2022-10-06T00:19:25.791Z,15.80
2022-10-06T00:22:13.300Z,15.60
2022-10-06T00:25:02.150Z,15.40
2022-10-06T00:27:53.069Z,15.40
2022-10-06T00:30:40.880Z,15.30
2022-10-06T00:33:28.646Z,15.30
2022-10-06T00:36:16.860Z,15.40
2022-10-06T00:39:04.430Z,15.40
2022-10-06T00:41:51.928Z,15.30
2022-10-06T00:44:39.924Z,15.40
2022-10-06T00:47:32.485Z,15.40
2022-10-06T00:50:20.329Z,15.30
2022-10-06T00:53:08.648Z,15.20
2022-10-06T00:55:57.451Z,15.30
2022-10-06T00:58:45.071Z,15.30
2022-10-06T01:01:35.014Z,15.20
2022-10-06T01:04:24.622Z,15.10
2022-10-06T01:07:12.349Z,15.10
2022-10-06T01:09:59.925Z,14.90
2022-10-06T01:12:48.389Z,14.90
2022-10-06T01:15:36.700Z,14.90
2022-10-06T01:18:28.221Z,15.00
2022-10-06T01:21:38.531Z,15.10
2022-10-06T01:24:26.066Z,15.00
2022-10-06T01:27:17.704Z,15.20
2022-10-06T01:30:09.891Z,15.10
2022-10-06T01:32:58.202Z,15.10
2022-10-06T01:35:53.732Z,15.10
2022-10-06T01:38:41.246Z,15.00
2022-10-06T01:41:30.510Z,15.10
2022-10-06T01:44:18.013Z,15.10
2022-10-06T01:47:07.359Z,15.10
2022-10-06T01:49:54.829Z,15.20
2022-10-06T01:52:42.335Z,15.40
2022-10-06T01:55:29.775Z,15.40
2022-10-06T01:58:17.709Z,15.40
2022-10-06T02:01:09.842Z,15.40
2022-10-06T02:03:57.418Z,15.40
2022-10-06T02:06:44.936Z,15.40
2022-10-06T02:09:32.520Z,15.30
2022-10-06T02:12:19.988Z,15.20
2022-10-06T02:15:10.665Z,15.10
2022-10-06T02:17:58.100Z,15.10
2022-10-06T02:20:45.626Z,15.00
2022-10-06T02:23:33.835Z,14.90
2022-10-06T02:26:21.546Z,14.90
2022-10-06T02:29:09.061Z,14.80
2022-10-06T02:31:56.550Z,14.80
2022-10-06T02:34:44.043Z,14.80
2022-10-06T02:37:32.496Z,14.80
2022-10-06T02:40:20.070Z,14.80
2022-10-06T02:43:07.598Z,14.80
2022-10-06T02:46:07.387Z,14.80
2022-10-06T02:48:54.969Z,14.80
2022-10-06T02:51:42.475Z,14.70
2022-10-06T02:54:29.926Z,14.70
2022-10-06T02:57:17.446Z,14.80
2022-10-06T03:00:07.570Z,14.80
2022-10-06T03:02:55.161Z,14.70
2022-10-06T03:05:42.681Z,14.60
2022-10-06T03:08:30.686Z,14.50
2022-10-06T03:11:21.055Z,14.50
2022-10-06T03:14:09.431Z,14.40
2022-10-06T03:16:57.244Z,14.40
2022-10-06T03:19:44.771Z,14.50
2022-10-06T03:22:32.215Z,14.50
2022-10-06T03:25:19.724Z,14.60
2022-10-06T03:28:07.275Z,14.70
2022-10-06T03:30:55.112Z,14.60
2022-10-06T03:33:42.681Z,14.70
2022-10-06T03:36:33.691Z,14.80
2022-10-06T03:39:21.271Z,14.90
2022-10-06T03:42:08.713Z,14.90
2022-10-06T03:44:56.170Z,14.70
2022-10-06T03:47:43.606Z,14.60
2022-10-06T03:50:31.067Z,14.60
2022-10-06T03:53:18.550Z,14.50
2022-10-06T03:56:17.780Z,14.50
2022-10-06T03:59:08.959Z,14.50
2022-10-06T04:01:56.578Z,14.60
2022-10-06T04:04:44.075Z,14.60
2022-10-06T04:07:31.675Z,14.70
2022-10-06T04:10:19.422Z,14.80
2022-10-06T04:13:06.935Z,14.90
2022-10-06T04:15:54.507Z,14.90
2022-10-06T04:18:44.452Z,14.70
2022-10-06T04:21:37.056Z,14.80
2022-10-06T04:24:24.525Z,14.70
2022-10-06T04:27:30.375Z,14.60
2022-10-06T04:30:18.376Z,14.60
2022-10-06T04:33:07.626Z,14.50
2022-10-06T04:36:04.231Z,14.50
2022-10-06T04:38:58.981Z,14.50
2022-10-06T04:41:47.489Z,14.50
2022-10-06T04:44:35.026Z,14.60
2022-10-06T04:47:22.640Z,14.60
2022-10-06T04:50:10.460Z,14.40
2022-10-06T04:52:57.946Z,14.40
2022-10-06T04:55:45.386Z,14.50
2022-10-06T04:58:39.750Z,14.40
2022-10-06T05:01:30.302Z,14.50
2022-10-06T05:04:17.826Z,14.40
2022-10-06T05:07:06.313Z,14.30
2022-10-06T05:09:53.768Z,14.30
2022-10-06T05:12:41.725Z,14.40
2022-10-06T05:15:29.434Z,14.50
2022-10-06T05:18:17.001Z,14.50
2022-10-06T05:21:08.410Z,14.50
2022-10-06T05:23:56.960Z,14.60
2022-10-06T05:26:44.407Z,14.70
2022-10-06T05:29:32.190Z,14.60
2022-10-06T05:32:19.655Z,14.70
2022-10-06T05:35:08.136Z,14.80
2022-10-06T05:37:55.606Z,14.90
2022-10-06T05:40:43.049Z,14.90
2022-10-06T05:43:31.448Z,15.00
2022-10-06T05:46:25.151Z,15.00
2022-10-06T05:49:13.090Z,15.10
2022-10-06T05:52:00.556Z,15.20
2022-10-06T05:54:48.060Z,15.30
2022-10-06T05:57:35.540Z,15.40
2022-10-06T06:00:23.045Z,15.40
2022-10-06T06:03:10.826Z,15.50
2022-10-06T06:05:58.350Z,15.20
2022-10-06T06:08:47.926Z,15.50
2022-10-06T06:11:39.421Z,14.90
2022-10-06T06:14:45.560Z,15.40
2022-10-06T06:17:34.387Z,15.70
2022-10-06T06:20:21.852Z,15.90
2022-10-06T06:23:09.791Z,16.10
2022-10-06T06:26:02.976Z,16.20
2022-10-06T06:28:55.623Z,16.40
2022-10-06T06:31:43.927Z,16.60
2022-10-06T06:34:31.515Z,16.80
2022-10-06T06:37:19.141Z,16.80
2022-10-06T06:40:07.562Z,16.80
2022-10-06T06:42:55.030Z,17.20
2022-10-06T06:45:42.561Z,17.30
2022-10-06T06:48:30.482Z,17.70
2022-10-06T06:51:21.385Z,17.90
2022-10-06T06:54:13.026Z,18.10
2022-10-06T06:57:00.694Z,18.30
2022-10-06T06:59:48.127Z,18.60
2022-10-06T07:02:35.618Z,18.60
2022-10-06T07:05:23.213Z,18.80
2022-10-06T07:08:11.920Z,19.00
2022-10-06T07:10:59.370Z,19.10
2022-10-06T07:13:52.330Z,19.20
2022-10-06T07:16:58.887Z,19.60
2022-10-06T07:20:04.905Z,19.60
2022-10-06T07:23:11.175Z,19.60
2022-10-06T07:25:58.631Z,19.70
2022-10-06T07:28:46.105Z,19.90
2022-10-06T07:31:36.558Z,20.10
2022-10-06T07:34:24.081Z,20.40
2022-10-06T07:37:11.557Z,20.40
2022-10-06T07:39:59.157Z,20.50
2022-10-06T07:42:51.959Z,20.30
2022-10-06T07:45:41.323Z,20.20
2022-10-06T07:48:29.070Z,20.50
2022-10-06T07:51:19.424Z,20.80
2022-10-06T07:54:08.485Z,20.70
2022-10-06T07:56:56.335Z,21.10
2022-10-06T07:59:44.405Z,21.20
2022-10-06T08:02:34.832Z,21.50
2022-10-06T08:05:23.525Z,21.60
2022-10-06T08:08:11.160Z,21.00
2022-10-06T08:11:01.493Z,21.20
2022-10-06T08:13:52.313Z,21.10
2022-10-06T08:16:39.915Z,20.50
2022-10-06T08:19:27.386Z,21.60
2022-10-06T08:22:16.090Z,21.50
2022-10-06T08:25:06.646Z,22.00
2022-10-06T08:27:54.466Z,21.80
2022-10-06T08:30:41.872Z,21.40
2022-10-06T08:33:29.415Z,21.60
2022-10-06T08:36:20.746Z,22.30
2022-10-06T08:39:08.255Z,22.60
2022-10-06T08:41:57.866Z,23.10
2022-10-06T08:44:59.400Z,23.30
2022-10-06T08:48:10.363Z,23.70
2022-10-06T08:51:32.740Z,24.20
2022-10-06T08:54:59.000Z,24.10
2022-10-06T09:01:29.266Z,24.10
2022-10-06T09:04:32.260Z,24.10
2022-10-06T09:07:58.359Z,24.70
2022-10-06T09:11:18.691Z,24.60
2022-10-06T09:14:44.720Z,25.00
2022-10-06T09:17:42.417Z,25.60
2022-10-06T09:20:43.220Z,25.80
2022-10-06T09:23:49.531Z,25.60
2022-10-06T09:26:44.288Z,25.80
2022-10-06T09:29:32.032Z,25.60
2022-10-06T09:32:24.512Z,26.00
2022-10-06T09:35:21.815Z,26.30
2022-10-06T09:38:11.719Z,26.00
2022-10-06T09:40:59.336Z,26.50
2022-10-06T09:44:01.931Z,26.40
2022-10-06T09:46:49.432Z,26.40
2022-10-06T09:49:36.970Z,26.90
2022-10-06T09:52:24.467Z,27.10
2022-10-06T09:55:19.290Z,27.10
2022-10-06T09:58:34.865Z,27.00
2022-10-06T10:01:27.042Z,27.20
2022-10-06T10:04:26.840Z,27.40
2022-10-06T10:07:26.626Z,27.70
2022-10-06T10:10:25.380Z,27.60
2022-10-06T10:13:25.961Z,27.70
2022-10-06T10:16:19.434Z,27.60
2022-10-06T10:19:32.996Z,27.40
2022-10-06T10:22:41.304Z,27.30
2022-10-06T10:26:22.637Z,27.70
2022-10-06T10:29:40.996Z,27.60
2022-10-06T10:33:15.353Z,27.40
2022-10-06T10:36:08.516Z,27.80
2022-10-06T10:38:56.452Z,27.20
2022-10-06T10:41:52.570Z,27.50
2022-10-06T10:44:53.994Z,27.50
2022-10-06T10:47:50.546Z,27.50
2022-10-06T10:51:16.191Z,28.20
2022-10-06T10:54:45.275Z,28.60
2022-10-06T10:57:41.675Z,28.50
2022-10-06T11:00:33.327Z,28.60
2022-10-06T11:03:20.756Z,28.40
2022-10-06T11:06:44.230Z,28.60
2022-10-06T11:09:53.000Z,28.90
2022-10-06T11:13:11.397Z,28.80
2022-10-06T11:16:44.700Z,28.80
2022-10-06T11:20:20.315Z,28.70
2022-10-06T11:23:32.731Z,29.20
2022-10-06T11:26:54.040Z,29.50
2022-10-06T11:29:53.791Z,29.00
2022-10-06T11:33:21.017Z,29.00
2022-10-06T11:36:31.790Z,29.10
2022-10-06T11:39:43.847Z,29.40
2022-10-06T11:43:07.507Z,29.40
2022-10-06T11:46:26.577Z,29.40
2022-10-06T11:49:29.030Z,29.00
2022-10-06T11:52:16.401Z,29.40
2022-10-06T11:55:16.260Z,29.40
2022-10-06T11:58:41.387Z,29.50
2022-10-06T12:01:33.597Z,29.70
2022-10-06T12:04:24.518Z,29.80
2022-10-06T12:07:13.131Z,29.80
2022-10-06T12:10:28.381Z,29.80
2022-10-06T12:14:12.308Z,29.50
2022-10-06T12:20:16.900Z,29.90
2022-10-06T12:23:10.333Z,29.70
2022-10-06T12:26:35.056Z,29.80
2022-10-06T12:29:42.377Z,30.00
2022-10-06T12:32:58.960Z,30.20
2022-10-06T12:35:47.611Z,30.10
2022-10-06T12:38:34.955Z,30.00
2022-10-06T12:42:04.017Z,30.10
2022-10-06T12:44:52.971Z,30.50
2022-10-06T12:47:44.563Z,30.30
2022-10-06T12:50:32.661Z,30.10
2022-10-06T12:53:37.958Z,30.20
2022-10-06T12:56:39.673Z,30.20
2022-10-06T12:59:34.039Z,30.20
2022-10-06T13:02:27.920Z,30.30
2022-10-06T13:05:15.871Z,30.40
2022-10-06T13:08:22.080Z,29.80
2022-10-06T13:11:25.635Z,30.10
2022-10-06T13:14:16.800Z,29.90
2022-10-06T13:17:04.350Z,29.90
2022-10-06T13:19:54.482Z,29.50
2022-10-06T13:22:42.110Z,29.80
2022-10-06T13:25:41.316Z,30.10
2022-10-06T13:28:43.609Z,30.30
2022-10-06T13:31:35.565Z,30.40
2022-10-06T13:34:43.329Z,30.50
2022-10-06T13:37:31.095Z,30.30
2022-10-06T13:40:47.049Z,30.70
2022-10-06T13:43:41.800Z,30.60
2022-10-06T13:46:39.968Z,30.10
2022-10-06T13:49:47.960Z,30.10
2022-10-06T13:52:48.946Z,30.20
2022-10-06T13:55:36.594Z,30.20
2022-10-06T13:58:29.980Z,29.90
2022-10-06T14:01:31.660Z,30.20
2022-10-06T14:04:19.471Z,30.10
2022-10-06T14:07:14.735Z,30.40
2022-10-06T14:10:02.367Z,30.30
2022-10-06T14:12:50.080Z,30.50
2022-10-06T14:15:57.432Z,30.40
2022-10-06T14:19:00.261Z,30.50
2022-10-06T14:21:48.529Z,30.30
2022-10-06T14:24:37.552Z,30.50
2022-10-06T14:27:25.157Z,30.50
2022-10-06T14:30:12.867Z,30.30
2022-10-06T14:33:00.263Z,30.40
2022-10-06T14:35:49.691Z,29.90
2022-10-06T14:38:37.132Z,29.90
2022-10-06T14:41:27.904Z,29.70
2022-10-06T14:44:16.162Z,29.90
2022-10-06T14:47:06.157Z,30.00
2022-10-06T14:49:53.613Z,30.00
2022-10-06T14:52:41.014Z,29.70
2022-10-06T14:55:30.321Z,29.50
2022-10-06T14:58:18.415Z,29.50
2022-10-06T15:01:07.982Z,29.80
2022-10-06T15:03:59.790Z,30.00
2022-10-06T15:07:06.692Z,29.80
2022-10-06T15:09:54.222Z,29.50
2022-10-06T15:12:41.731Z,29.80
2022-10-06T15:15:33.846Z,29.50
2022-10-06T15:18:21.630Z,29.70
2022-10-06T15:21:11.398Z,29.60
2022-10-06T15:24:04.137Z,29.40
2022-10-06T15:27:10.434Z,29.40
2022-10-06T15:29:57.829Z,29.20
2022-10-06T15:32:45.405Z,29.10
2022-10-06T15:35:33.113Z,29.00
2022-10-06T15:38:21.665Z,28.70
2022-10-06T15:41:10.225Z,28.70
2022-10-06T15:43:57.900Z,28.70
2022-10-06T15:46:49.338Z,28.50
2022-10-06T15:49:40.714Z,28.30
2022-10-06T15:52:34.096Z,28.10
2022-10-06T15:55:21.578Z,28.00
2022-10-06T15:58:09.003Z,27.90
2022-10-06T16:00:57.368Z,27.70
2022-10-06T16:03:44.901Z,27.60
2022-10-06T16:06:54.194Z,27.60
2022-10-06T16:09:45.325Z,27.40
2022-10-06T16:12:33.026Z,27.10
2022-10-06T16:15:20.487Z,26.90
2022-10-06T16:18:07.886Z,26.70
2022-10-06T16:20:56.161Z,26.50
2022-10-06T16:23:43.565Z,26.30
2022-10-06T16:26:31.340Z,26.20
2022-10-06T16:29:21.429Z,26.00
2022-10-06T16:32:09.250Z,25.90
2022-10-06T16:34:56.702Z,25.80
2022-10-06T16:37:49.247Z,25.60
2022-10-06T16:40:36.677Z,25.40
2022-10-06T16:43:31.687Z,25.30
2022-10-06T16:46:26.291Z,25.10
2022-10-06T16:49:13.806Z,24.90
2022-10-06T16:52:01.206Z,24.90
2022-10-06T16:54:48.621Z,24.60
2022-10-06T16:57:36.027Z,24.50
2022-10-06T17:00:23.576Z,24.40
2022-10-06T17:03:11.040Z,24.30
2022-10-06T17:06:17.932Z,24.10
2022-10-06T17:09:14.909Z,24.00
2022-10-06T17:12:04.626Z,23.80
2022-10-06T17:14:52.059Z,23.70
2022-10-06T17:17:39.935Z,23.60
2022-10-06T17:20:27.846Z,23.60
2022-10-06T17:23:15.256Z,23.50
2022-10-06T17:26:17.613Z,23.40
2022-10-06T17:29:09.430Z,23.30
2022-10-06T17:32:00.285Z,23.20
2022-10-06T17:34:48.151Z,23.20
2022-10-06T17:37:35.528Z,23.20
2022-10-06T17:40:23.022Z,23.10
2022-10-06T17:43:11.035Z,23.00
2022-10-06T17:45:58.491Z,22.90
2022-10-06T17:48:50.091Z,22.90
2022-10-06T17:51:43.565Z,22.70
2022-10-06T17:54:33.638Z,22.80
2022-10-06T17:57:21.101Z,22.60
2022-10-06T18:00:10.073Z,22.50
2022-10-06T18:03:00.296Z,22.40
2022-10-06T18:05:54.880Z,22.50
2022-10-06T18:08:44.720Z,22.40
2022-10-06T18:11:35.992Z,22.40
2022-10-06T18:14:34.811Z,22.20
2022-10-06T18:17:24.275Z,22.50
2022-10-06T18:20:12.210Z,22.30
2022-10-06T18:22:59.651Z,22.10
2022-10-06T18:25:47.100Z,21.90
2022-10-06T18:28:34.558Z,21.60
2022-10-06T18:31:22.163Z,21.50
2022-10-06T18:37:19.956Z,21.40
2022-10-06T18:40:10.130Z,21.20
2022-10-06T18:42:57.742Z,21.20
2022-10-06T18:46:04.070Z,21.10
2022-10-06T18:48:55.128Z,21.00
2022-10-06T18:51:47.131Z,21.10
2022-10-06T18:54:34.555Z,21.10
2022-10-06T18:57:27.174Z,21.10
2022-10-06T19:00:15.528Z,21.00
2022-10-06T19:03:03.661Z,20.80
2022-10-06T19:05:53.081Z,20.80
2022-10-06T19:08:40.497Z,20.70
2022-10-06T19:11:44.586Z,20.70
2022-10-06T19:14:36.676Z,20.60
2022-10-06T19:17:24.516Z,20.50
2022-10-06T19:20:12.957Z,20.00
2022-10-06T19:23:00.436Z,20.20
2022-10-06T19:25:49.831Z,20.30
2022-10-06T19:28:38.354Z,20.20
2022-10-06T19:31:25.957Z,20.20
2022-10-06T19:34:17.435Z,20.20
2022-10-06T19:37:06.576Z,20.10
2022-10-06T19:39:54.342Z,20.10
2022-10-06T19:42:47.919Z,20.10
2022-10-06T19:45:35.613Z,20.00
2022-10-06T19:48:23.300Z,20.00
2022-10-06T19:51:17.056Z,20.00
2022-10-06T19:54:05.135Z,19.90
2022-10-06T19:56:52.530Z,20.00
2022-10-06T19:59:40.732Z,20.00
2022-10-06T20:02:29.032Z,20.00
2022-10-06T20:05:17.820Z,20.00
2022-10-06T20:08:06.180Z,19.90
2022-10-06T20:11:10.010Z,20.00
2022-10-06T20:13:57.387Z,20.00
2022-10-06T20:16:49.271Z,20.10
2022-10-06T20:19:36.947Z,20.10
2022-10-06T20:22:25.400Z,20.10
2022-10-06T20:25:12.891Z,20.20
2022-10-06T20:28:01.821Z,20.00
2022-10-06T20:30:52.003Z,20.00
2022-10-06T20:33:39.440Z,19.70
2022-10-06T20:36:29.451Z,19.80
2022-10-06T20:39:41.241Z,19.70
2022-10-06T20:42:28.695Z,19.70
2022-10-06T20:45:16.195Z,19.70
2022-10-06T20:48:04.297Z,19.70
2022-10-06T20:50:51.735Z,19.60
2022-10-06T20:53:40.017Z,19.60
2022-10-06T20:56:27.536Z,19.50
2022-10-06T20:59:15.286Z,19.50
2022-10-06T21:02:03.562Z,19.40
2022-10-06T21:04:51.065Z,19.40
2022-10-06T21:07:39.170Z,19.40
2022-10-06T21:10:26.569Z,19.30
2022-10-06T21:13:14.040Z,19.20
2022-10-06T21:16:02.137Z,19.20
2022-10-06T21:18:51.121Z,19.20
2022-10-06T21:21:39.960Z,19.20
2022-10-06T21:24:27.429Z,19.20
2022-10-06T21:27:18.443Z,19.20
2022-10-06T21:30:06.795Z,19.10
2022-10-06T21:32:54.246Z,19.10
2022-10-06T21:35:41.679Z,19.00
2022-10-06T21:38:30.364Z,19.00
2022-10-06T21:41:22.145Z,19.00
2022-10-06T21:44:13.798Z,19.40
2022-10-06T21:47:02.737Z,19.90
2022-10-06T21:49:50.334Z,20.00
2022-10-06T21:52:37.695Z,20.00
2022-10-06T21:55:25.130Z,19.70
2022-10-06T21:58:12.679Z,19.70
2022-10-06T22:01:09.325Z,19.40
2022-10-06T22:04:00.414Z,19.30
2022-10-06T22:06:50.776Z,19.30
2022-10-06T22:09:38.207Z,19.20
2022-10-06T22:12:25.640Z,19.20
2022-10-06T22:15:13.069Z,19.00
2022-10-06T22:18:00.470Z,18.90
2022-10-06T22:20:47.925Z,18.90
2022-10-06T22:23:35.345Z,18.90
2022-10-06T22:26:24.430Z,18.90
2022-10-06T22:29:15.688Z,18.80
2022-10-06T22:32:03.146Z,18.70
2022-10-06T22:34:50.693Z,18.70
2022-10-06T22:37:38.044Z,18.60
2022-10-06T22:40:25.499Z,18.60
2022-10-06T22:43:12.932Z,18.60
2022-10-06T22:46:01.199Z,18.60
2022-10-06T22:48:48.608Z,18.50
2022-10-06T22:51:36.429Z,18.50
2022-10-06T22:54:26.024Z,18.50
2022-10-06T22:57:13.468Z,18.50
2022-10-06T23:00:00.933Z,18.40
2022-10-06T23:02:48.430Z,18.40
2022-10-06T23:05:36.548Z,18.30
2022-10-06T23:08:25.268Z,18.30
2022-10-06T23:11:19.989Z,18.30
2022-10-06T23:14:07.458Z,18.40
2022-10-06T23:16:54.963Z,18.20
2022-10-06T23:19:42.448Z,18.10
2022-10-06T23:22:29.907Z,18.10
2022-10-06T23:25:17.433Z,18.10
2022-10-06T23:28:05.077Z,18.00
2022-10-06T23:30:52.538Z,18.00
2022-10-06T23:33:40.418Z,18.00
2022-10-06T23:36:28.722Z,18.00
2022-10-06T23:39:16.928Z,18.00
2022-10-06T23:42:04.673Z,18.10
2022-10-06T23:44:52.174Z,18.00
2022-10-06T23:47:39.613Z,18.00
2022-10-06T23:50:27.078Z,18.10
2022-10-06T23:53:14.468Z,18.10
2022-10-06T23:56:03.087Z,18.10
2022-10-06T23:58:50.507Z,18.10
